sensor_id;sensor_type;location;lat;lon;timestamp;P1;durP1;ratioP1;P2;durP2;ratioP2
20739;SDS011;10530;49.968;19.844;2023-03-01T00:04:55;32.28;;;11.70;;
20739;SDS011;10530;49.968;19.844;2023-03-01T00:09:58;32.10;;;11.60;;
20739;SDS011;10530;49.968;19.844;2023-03-01T00:15:00;28.60;;;11.10;;
20739;SDS011;10530;49.968;19.844;2023-03-01T00:20:03;28.67;;;11.15;;
20739;SDS011;10530;49.968;19.844;2023-03-01T00:25:11;20.60;;;9.43;;
20739;SDS011;10530;49.968;19.844;2023-03-01T00:30:14;22.27;;;8.93;;
20739;SDS011;10530;49.968;19.844;2023-03-01T00:35:17;26.38;;;10.55;;
20739;SDS011;10530;49.968;19.844;2023-03-01T00:40:20;33.77;;;11.63;;
20739;SDS011;10530;49.968;19.844;2023-03-01T00:45:22;22.38;;;9.68;;
20739;SDS011;10530;49.968;19.844;2023-03-01T00:50:26;22.67;;;10.03;;
20739;SDS011;10530;49.968;19.844;2023-03-01T00:55:29;25.33;;;9.98;;
20739;SDS011;10530;49.968;19.844;2023-03-01T01:00:31;21.65;;;10.23;;
20739;SDS011;10530;49.968;19.844;2023-03-01T01:05:34;24.77;;;11.10;;
20739;SDS011;10530;49.968;19.844;2023-03-01T01:10:37;20.33;;;10.45;;
20739;SDS011;10530;49.968;19.844;2023-03-01T01:15:40;26.20;;;9.83;;
20739;SDS011;10530;49.968;19.844;2023-03-01T01:20:42;15.93;;;8.55;;
20739;SDS011;10530;49.968;19.844;2023-03-01T01:25:45;24.27;;;9.73;;
20739;SDS011;10530;49.968;19.844;2023-03-01T01:30:48;23.10;;;9.23;;
20739;SDS011;10530;49.968;19.844;2023-03-01T01:35:50;19.15;;;8.35;;
20739;SDS011;10530;49.968;19.844;2023-03-01T01:40:54;21.33;;;9.37;;
20739;SDS011;10530;49.968;19.844;2023-03-01T01:45:57;26.33;;;8.90;;
20739;SDS011;10530;49.968;19.844;2023-03-01T01:51:04;29.60;;;9.70;;
20739;SDS011;10530;49.968;19.844;2023-03-01T01:56:07;17.50;;;8.57;;
20739;SDS011;10530;49.968;19.844;2023-03-01T02:01:13;21.17;;;8.85;;
20739;SDS011;10530;49.968;19.844;2023-03-01T02:06:22;25.33;;;10.87;;
20739;SDS011;10530;49.968;19.844;2023-03-01T02:11:31;22.40;;;7.45;;
20739;SDS011;10530;49.968;19.844;2023-03-01T02:16:35;27.17;;;10.50;;
20739;SDS011;10530;49.968;19.844;2023-03-01T02:26:50;30.85;;;10.23;;
20739;SDS011;10530;49.968;19.844;2023-03-01T02:31:57;22.73;;;10.67;;
20739;SDS011;10530;49.968;19.844;2023-03-01T02:37:03;28.42;;;11.38;;
20739;SDS011;10530;49.968;19.844;2023-03-01T02:42:11;25.73;;;9.70;;
20739;SDS011;10530;49.968;19.844;2023-03-01T02:47:18;24.20;;;9.37;;
20739;SDS011;10530;49.968;19.844;2023-03-01T02:52:23;25.45;;;10.73;;
20739;SDS011;10530;49.968;19.844;2023-03-01T02:57:38;19.57;;;10.47;;
20739;SDS011;10530;49.968;19.844;2023-03-01T03:02:46;29.85;;;10.68;;
20739;SDS011;10530;49.968;19.844;2023-03-01T03:07:58;33.80;;;13.80;;
20739;SDS011;10530;49.968;19.844;2023-03-01T03:13:08;34.90;;;15.40;;
20739;SDS011;10530;49.968;19.844;2023-03-01T03:18:15;38.22;;;14.27;;
20739;SDS011;10530;49.968;19.844;2023-03-01T03:23:19;31.70;;;13.20;;
20739;SDS011;10530;49.968;19.844;2023-03-01T03:28:25;22.52;;;12.15;;
20739;SDS011;10530;49.968;19.844;2023-03-01T03:33:28;25.08;;;10.15;;
20739;SDS011;10530;49.968;19.844;2023-03-01T03:38:30;35.03;;;15.13;;
20739;SDS011;10530;49.968;19.844;2023-03-01T03:43:34;32.30;;;18.63;;
20739;SDS011;10530;49.968;19.844;2023-03-01T03:48:39;41.30;;;17.27;;
20739;SDS011;10530;49.968;19.844;2023-03-01T03:53:44;34.90;;;15.57;;
20739;SDS011;10530;49.968;19.844;2023-03-01T03:58:47;39.72;;;18.10;;
20739;SDS011;10530;49.968;19.844;2023-03-01T04:03:49;34.47;;;16.57;;
20739;SDS011;10530;49.968;19.844;2023-03-01T04:08:56;30.77;;;14.98;;
20739;SDS011;10530;49.968;19.844;2023-03-01T04:14:00;35.03;;;13.03;;
20739;SDS011;10530;49.968;19.844;2023-03-01T04:19:03;33.17;;;14.02;;
20739;SDS011;10530;49.968;19.844;2023-03-01T04:24:08;39.65;;;13.10;;
20739;SDS011;10530;49.968;19.844;2023-03-01T04:29:11;28.33;;;12.30;;
20739;SDS011;10530;49.968;19.844;2023-03-01T04:34:14;29.17;;;11.63;;
20739;SDS011;10530;49.968;19.844;2023-03-01T04:39:16;26.53;;;10.97;;
20739;SDS011;10530;49.968;19.844;2023-03-01T04:44:19;31.08;;;13.20;;
20739;SDS011;10530;49.968;19.844;2023-03-01T04:49:21;24.00;;;11.68;;
20739;SDS011;10530;49.968;19.844;2023-03-01T04:54:24;32.07;;;10.67;;
20739;SDS011;10530;49.968;19.844;2023-03-01T04:59:28;24.13;;;12.25;;
20739;SDS011;10530;49.968;19.844;2023-03-01T05:04:30;21.77;;;10.50;;
20739;SDS011;10530;49.968;19.844;2023-03-01T05:09:33;30.15;;;12.13;;
20739;SDS011;10530;49.968;19.844;2023-03-01T05:14:36;25.45;;;11.20;;
20739;SDS011;10530;49.968;19.844;2023-03-01T05:19:40;26.43;;;11.37;;
20739;SDS011;10530;49.968;19.844;2023-03-01T05:24:44;30.27;;;9.63;;
20739;SDS011;10530;49.968;19.844;2023-03-01T05:29:48;34.00;;;10.83;;
20739;SDS011;10530;49.968;19.844;2023-03-01T05:34:51;24.10;;;10.25;;
20739;SDS011;10530;49.968;19.844;2023-03-01T05:39:53;25.88;;;9.00;;
20739;SDS011;10530;49.968;19.844;2023-03-01T05:44:56;17.50;;;9.63;;
20739;SDS011;10530;49.968;19.844;2023-03-01T05:49:59;26.67;;;10.18;;
20739;SDS011;10530;49.968;19.844;2023-03-01T05:55:02;19.33;;;11.80;;
20739;SDS011;10530;49.968;19.844;2023-03-01T06:00:05;29.88;;;12.02;;
20739;SDS011;10530;49.968;19.844;2023-03-01T06:05:13;21.42;;;11.07;;
20739;SDS011;10530;49.968;19.844;2023-03-01T06:10:17;34.20;;;14.33;;
20739;SDS011;10530;49.968;19.844;2023-03-01T06:15:21;26.35;;;16.00;;
20739;SDS011;10530;49.968;19.844;2023-03-01T06:20:25;24.17;;;12.10;;
20739;SDS011;10530;49.968;19.844;2023-03-01T06:25:30;60.17;;;17.65;;
20739;SDS011;10530;49.968;19.844;2023-03-01T06:30:32;41.38;;;13.82;;
20739;SDS011;10530;49.968;19.844;2023-03-01T06:41:10;47.42;;;21.15;;
20739;SDS011;10530;49.968;19.844;2023-03-01T06:46:12;62.90;;;22.05;;
20739;SDS011;10530;49.968;19.844;2023-03-01T06:51:15;58.70;;;23.23;;
20739;SDS011;10530;49.968;19.844;2023-03-01T06:56:18;56.07;;;23.97;;
20739;SDS011;10530;49.968;19.844;2023-03-01T07:01:21;48.17;;;21.52;;
20739;SDS011;10530;49.968;19.844;2023-03-01T07:06:24;55.38;;;21.13;;
20739;SDS011;10530;49.968;19.844;2023-03-01T07:11:27;56.08;;;20.20;;
20739;SDS011;10530;49.968;19.844;2023-03-01T07:16:30;57.72;;;23.27;;
20739;SDS011;10530;49.968;19.844;2023-03-01T07:21:33;69.83;;;26.30;;
20739;SDS011;10530;49.968;19.844;2023-03-01T07:26:36;69.35;;;26.73;;
20739;SDS011;10530;49.968;19.844;2023-03-01T07:31:39;64.47;;;24.52;;
20739;SDS011;10530;49.968;19.844;2023-03-01T07:36:42;56.72;;;22.75;;
20739;SDS011;10530;49.968;19.844;2023-03-01T07:41:47;66.07;;;25.13;;
20739;SDS011;10530;49.968;19.844;2023-03-01T07:46:54;52.67;;;21.67;;
20739;SDS011;10530;49.968;19.844;2023-03-01T07:52:00;57.08;;;22.30;;
20739;SDS011;10530;49.968;19.844;2023-03-01T07:57:02;65.63;;;24.75;;
20739;SDS011;10530;49.968;19.844;2023-03-01T08:02:05;59.60;;;22.35;;
20739;SDS011;10530;49.968;19.844;2023-03-01T08:07:08;54.63;;;22.38;;
20739;SDS011;10530;49.968;19.844;2023-03-01T08:12:11;52.53;;;21.67;;
20739;SDS011;10530;49.968;19.844;2023-03-01T08:17:14;67.45;;;22.48;;
20739;SDS011;10530;49.968;19.844;2023-03-01T08:22:17;58.17;;;23.73;;
20739;SDS011;10530;49.968;19.844;2023-03-01T08:27:20;47.85;;;17.25;;
20739;SDS011;10530;49.968;19.844;2023-03-01T08:32:25;58.25;;;22.45;;
20739;SDS011;10530;49.968;19.844;2023-03-01T08:37:28;78.70;;;25.27;;
20739;SDS011;10530;49.968;19.844;2023-03-01T08:42:32;70.25;;;27.52;;
20739;SDS011;10530;49.968;19.844;2023-03-01T08:47:35;75.30;;;27.58;;
20739;SDS011;10530;49.968;19.844;2023-03-01T08:52:38;73.40;;;25.55;;
20739;SDS011;10530;49.968;19.844;2023-03-01T08:57:41;61.63;;;24.38;;
20739;SDS011;10530;49.968;19.844;2023-03-01T09:02:44;55.30;;;23.60;;
20739;SDS011;10530;49.968;19.844;2023-03-01T09:07:46;58.47;;;23.67;;
20739;SDS011;10530;49.968;19.844;2023-03-01T09:12:49;55.50;;;22.73;;
20739;SDS011;10530;49.968;19.844;2023-03-01T09:17:53;42.05;;;18.08;;
20739;SDS011;10530;49.968;19.844;2023-03-01T09:22:57;45.92;;;17.67;;
20739;SDS011;10530;49.968;19.844;2023-03-01T09:28:00;43.43;;;19.13;;
20739;SDS011;10530;49.968;19.844;2023-03-01T09:33:03;44.08;;;17.42;;
20739;SDS011;10530;49.968;19.844;2023-03-01T09:38:05;34.15;;;14.15;;
20739;SDS011;10530;49.968;19.844;2023-03-01T09:43:13;30.75;;;13.90;;
20739;SDS011;10530;49.968;19.844;2023-03-01T09:48:25;31.40;;;14.68;;
20739;SDS011;10530;49.968;19.844;2023-03-01T09:53:32;32.27;;;13.33;;
20739;SDS011;10530;49.968;19.844;2023-03-01T09:58:47;33.13;;;13.75;;
20739;SDS011;10530;49.968;19.844;2023-03-01T10:09:49;15.77;;;7.85;;
20739;SDS011;10530;49.968;19.844;2023-03-01T10:30:44;29.50;;;13.25;;
20739;SDS011;10530;49.968;19.844;2023-03-01T10:35:47;33.13;;;14.30;;
20739;SDS011;10530;49.968;19.844;2023-03-01T10:45:54;32.87;;;13.43;;
20739;SDS011;10530;49.968;19.844;2023-03-01T10:56:09;33.47;;;15.07;;
20739;SDS011;10530;49.968;19.844;2023-03-01T11:06:21;30.45;;;13.57;;
20739;SDS011;10530;49.968;19.844;2023-03-01T11:11:33;24.50;;;12.83;;
20739;SDS011;10530;49.968;19.844;2023-03-01T11:16:37;25.33;;;11.60;;
20739;SDS011;10530;49.968;19.844;2023-03-01T11:22:02;28.33;;;12.80;;
20739;SDS011;10530;49.968;19.844;2023-03-01T11:32:22;27.77;;;11.35;;
20739;SDS011;10530;49.968;19.844;2023-03-01T11:37:32;23.53;;;11.00;;
20739;SDS011;10530;49.968;19.844;2023-03-01T11:42:52;24.63;;;10.68;;
20739;SDS011;10530;49.968;19.844;2023-03-01T11:48:12;24.02;;;9.85;;
20739;SDS011;10530;49.968;19.844;2023-03-01T12:09:05;20.02;;;9.77;;
20739;SDS011;10530;49.968;19.844;2023-03-01T12:25:20;26.70;;;12.50;;
20739;SDS011;10530;49.968;19.844;2023-03-01T12:41:24;26.80;;;11.63;;
20739;SDS011;10530;49.968;19.844;2023-03-01T12:46:45;27.60;;;12.68;;
20739;SDS011;10530;49.968;19.844;2023-03-01T12:51:59;28.38;;;13.05;;
20739;SDS011;10530;49.968;19.844;2023-03-01T12:57:21;35.40;;;13.30;;
20739;SDS011;10530;49.968;19.844;2023-03-01T13:07:58;27.25;;;11.30;;
20739;SDS011;10530;49.968;19.844;2023-03-01T13:13:20;25.90;;;9.98;;
20739;SDS011;10530;49.968;19.844;2023-03-01T13:18:29;27.05;;;10.00;;
20739;SDS011;10530;49.968;19.844;2023-03-01T13:23:34;19.63;;;9.47;;
20739;SDS011;10530;49.968;19.844;2023-03-01T13:33:58;24.33;;;10.32;;
20739;SDS011;10530;49.968;19.844;2023-03-01T13:39:05;20.40;;;8.88;;
20739;SDS011;10530;49.968;19.844;2023-03-01T13:49:48;21.93;;;8.97;;
20739;SDS011;10530;49.968;19.844;2023-03-01T13:55:30;22.15;;;9.35;;
20739;SDS011;10530;49.968;19.844;2023-03-01T14:00:39;25.00;;;10.98;;
20739;SDS011;10530;49.968;19.844;2023-03-01T14:05:44;26.52;;;9.85;;
20739;SDS011;10530;49.968;19.844;2023-03-01T14:21:49;22.08;;;8.07;;
20739;SDS011;10530;49.968;19.844;2023-03-01T14:27:33;25.55;;;9.05;;
20739;SDS011;10530;49.968;19.844;2023-03-01T14:32:53;19.77;;;8.70;;
20739;SDS011;10530;49.968;19.844;2023-03-01T14:38:00;17.63;;;7.57;;
20739;SDS011;10530;49.968;19.844;2023-03-01T14:43:10;20.67;;;7.87;;
20739;SDS011;10530;49.968;19.844;2023-03-01T14:48:20;16.13;;;7.38;;
20739;SDS011;10530;49.968;19.844;2023-03-01T14:53:24;18.23;;;7.97;;
20739;SDS011;10530;49.968;19.844;2023-03-01T14:58:31;17.60;;;7.65;;
20739;SDS011;10530;49.968;19.844;2023-03-01T15:03:37;17.77;;;8.10;;
20739;SDS011;10530;49.968;19.844;2023-03-01T15:08:51;17.40;;;7.00;;
20739;SDS011;10530;49.968;19.844;2023-03-01T15:13:55;16.70;;;6.97;;
20739;SDS011;10530;49.968;19.844;2023-03-01T15:19:00;20.90;;;7.60;;
20739;SDS011;10530;49.968;19.844;2023-03-01T15:29:17;17.42;;;6.20;;
20739;SDS011;10530;49.968;19.844;2023-03-01T15:34:28;14.50;;;5.47;;
20739;SDS011;10530;49.968;19.844;2023-03-01T15:39:38;15.57;;;5.95;;
20739;SDS011;10530;49.968;19.844;2023-03-01T15:44:45;19.08;;;6.40;;
20739;SDS011;10530;49.968;19.844;2023-03-01T15:49:48;21.05;;;7.93;;
20739;SDS011;10530;49.968;19.844;2023-03-01T15:54:57;16.60;;;6.70;;
20739;SDS011;10530;49.968;19.844;2023-03-01T16:00:04;15.97;;;6.17;;
20739;SDS011;10530;49.968;19.844;2023-03-01T16:05:17;18.08;;;6.15;;
20739;SDS011;10530;49.968;19.844;2023-03-01T16:10:25;23.30;;;7.00;;
20739;SDS011;10530;49.968;19.844;2023-03-01T16:15:30;17.15;;;6.88;;
20739;SDS011;10530;49.968;19.844;2023-03-01T16:20:36;16.58;;;6.40;;
20739;SDS011;10530;49.968;19.844;2023-03-01T16:25:39;19.80;;;6.87;;
20739;SDS011;10530;49.968;19.844;2023-03-01T16:30:45;20.55;;;7.05;;
20739;SDS011;10530;49.968;19.844;2023-03-01T16:35:50;18.10;;;6.88;;
20739;SDS011;10530;49.968;19.844;2023-03-01T16:40:53;16.65;;;6.43;;
20739;SDS011;10530;49.968;19.844;2023-03-01T16:45:56;19.05;;;7.60;;
20739;SDS011;10530;49.968;19.844;2023-03-01T16:51:00;19.70;;;8.83;;
20739;SDS011;10530;49.968;19.844;2023-03-01T16:56:07;24.75;;;9.25;;
20739;SDS011;10530;49.968;19.844;2023-03-01T17:01:13;25.10;;;9.73;;
20739;SDS011;10530;49.968;19.844;2023-03-01T17:06:20;20.20;;;7.25;;
20739;SDS011;10530;49.968;19.844;2023-03-01T17:11:25;18.17;;;8.63;;
20739;SDS011;10530;49.968;19.844;2023-03-01T17:16:28;27.10;;;8.20;;
20739;SDS011;10530;49.968;19.844;2023-03-01T17:21:31;19.30;;;7.95;;
20739;SDS011;10530;49.968;19.844;2023-03-01T17:26:34;26.27;;;10.77;;
20739;SDS011;10530;49.968;19.844;2023-03-01T17:31:37;24.65;;;9.70;;
20739;SDS011;10530;49.968;19.844;2023-03-01T17:36:40;23.10;;;9.73;;
20739;SDS011;10530;49.968;19.844;2023-03-01T17:41:45;32.33;;;10.87;;
20739;SDS011;10530;49.968;19.844;2023-03-01T17:46:48;27.60;;;10.45;;
20739;SDS011;10530;49.968;19.844;2023-03-01T17:51:51;25.38;;;9.48;;
20739;SDS011;10530;49.968;19.844;2023-03-01T17:56:54;26.67;;;10.65;;
20739;SDS011;10530;49.968;19.844;2023-03-01T18:01:57;31.10;;;9.25;;
20739;SDS011;10530;49.968;19.844;2023-03-01T18:07:02;23.00;;;10.13;;
20739;SDS011;10530;49.968;19.844;2023-03-01T18:12:05;23.92;;;9.45;;
20739;SDS011;10530;49.968;19.844;2023-03-01T18:17:08;24.92;;;10.13;;
20739;SDS011;10530;49.968;19.844;2023-03-01T18:22:13;30.60;;;9.48;;
20739;SDS011;10530;49.968;19.844;2023-03-01T18:27:17;25.25;;;9.32;;
20739;SDS011;10530;49.968;19.844;2023-03-01T18:32:19;29.70;;;10.97;;
20739;SDS011;10530;49.968;19.844;2023-03-01T18:37:23;29.50;;;10.20;;
20739;SDS011;10530;49.968;19.844;2023-03-01T18:42:26;22.58;;;9.63;;
20739;SDS011;10530;49.968;19.844;2023-03-01T18:47:29;30.45;;;10.88;;
20739;SDS011;10530;49.968;19.844;2023-03-01T18:52:32;34.53;;;12.98;;
20739;SDS011;10530;49.968;19.844;2023-03-01T18:57:35;28.87;;;12.37;;
20739;SDS011;10530;49.968;19.844;2023-03-01T19:02:38;31.08;;;11.70;;
20739;SDS011;10530;49.968;19.844;2023-03-01T19:07:41;32.10;;;13.13;;
20739;SDS011;10530;49.968;19.844;2023-03-01T19:12:45;29.75;;;12.00;;
20739;SDS011;10530;49.968;19.844;2023-03-01T19:17:48;36.25;;;12.27;;
20739;SDS011;10530;49.968;19.844;2023-03-01T19:22:51;35.90;;;15.40;;
20739;SDS011;10530;49.968;19.844;2023-03-01T19:27:54;26.98;;;11.85;;
20739;SDS011;10530;49.968;19.844;2023-03-01T19:32:56;25.13;;;11.52;;
20739;SDS011;10530;49.968;19.844;2023-03-01T19:37:59;28.38;;;9.98;;
20739;SDS011;10530;49.968;19.844;2023-03-01T19:43:02;24.52;;;9.70;;
20739;SDS011;10530;49.968;19.844;2023-03-01T19:48:05;25.60;;;10.37;;
20739;SDS011;10530;49.968;19.844;2023-03-01T19:53:07;29.52;;;11.27;;
20739;SDS011;10530;49.968;19.844;2023-03-01T19:58:10;28.88;;;10.60;;
20739;SDS011;10530;49.968;19.844;2023-03-01T20:03:13;24.67;;;9.60;;
20739;SDS011;10530;49.968;19.844;2023-03-01T20:08:16;27.92;;;10.57;;
20739;SDS011;10530;49.968;19.844;2023-03-01T20:13:19;32.97;;;12.07;;
20739;SDS011;10530;49.968;19.844;2023-03-01T20:18:22;35.58;;;14.20;;
20739;SDS011;10530;49.968;19.844;2023-03-01T20:23:25;44.67;;;17.55;;
20739;SDS011;10530;49.968;19.844;2023-03-01T20:28:29;34.45;;;14.23;;
20739;SDS011;10530;49.968;19.844;2023-03-01T20:33:32;38.20;;;15.40;;
20739;SDS011;10530;49.968;19.844;2023-03-01T20:38:35;49.83;;;17.27;;
20739;SDS011;10530;49.968;19.844;2023-03-01T20:43:41;46.35;;;18.77;;
20739;SDS011;10530;49.968;19.844;2023-03-01T20:48:44;58.38;;;20.15;;
20739;SDS011;10530;49.968;19.844;2023-03-01T20:53:47;43.05;;;17.85;;
20739;SDS011;10530;49.968;19.844;2023-03-01T20:58:50;49.72;;;18.13;;
20739;SDS011;10530;49.968;19.844;2023-03-01T21:03:53;42.93;;;15.10;;
20739;SDS011;10530;49.968;19.844;2023-03-01T21:15:42;41.10;;;14.73;;
20739;SDS011;10530;49.968;19.844;2023-03-01T21:20:52;34.72;;;12.80;;
20739;SDS011;10530;49.968;19.844;2023-03-01T21:26:02;38.83;;;15.90;;
20739;SDS011;10530;49.968;19.844;2023-03-01T21:31:13;27.87;;;9.43;;
20739;SDS011;10530;49.968;19.844;2023-03-01T21:36:20;37.47;;;13.98;;
20739;SDS011;10530;49.968;19.844;2023-03-01T21:41:25;34.42;;;12.73;;
20739;SDS011;10530;49.968;19.844;2023-03-01T21:46:30;32.35;;;13.13;;
20739;SDS011;10530;49.968;19.844;2023-03-01T21:51:35;35.38;;;14.52;;
20739;SDS011;10530;49.968;19.844;2023-03-01T21:56:38;35.07;;;13.83;;
20739;SDS011;10530;49.968;19.844;2023-03-01T22:01:41;45.47;;;16.30;;
20739;SDS011;10530;49.968;19.844;2023-03-01T22:06:45;41.40;;;17.25;;
20739;SDS011;10530;49.968;19.844;2023-03-01T22:11:48;41.85;;;16.48;;
20739;SDS011;10530;49.968;19.844;2023-03-01T22:16:55;46.05;;;19.10;;
20739;SDS011;10530;49.968;19.844;2023-03-01T22:21:59;59.67;;;18.63;;
20739;SDS011;10530;49.968;19.844;2023-03-01T22:27:02;47.35;;;19.58;;
20739;SDS011;10530;49.968;19.844;2023-03-01T22:32:04;42.53;;;19.73;;
20739;SDS011;10530;49.968;19.844;2023-03-01T22:37:07;46.20;;;18.08;;
20739;SDS011;10530;49.968;19.844;2023-03-01T22:42:10;42.55;;;19.33;;
20739;SDS011;10530;49.968;19.844;2023-03-01T22:47:13;45.57;;;19.37;;
20739;SDS011;10530;49.968;19.844;2023-03-01T22:52:16;48.50;;;20.95;;
20739;SDS011;10530;49.968;19.844;2023-03-01T22:57:19;46.03;;;17.45;;
20739;SDS011;10530;49.968;19.844;2023-03-01T23:02:21;53.60;;;18.58;;
20739;SDS011;10530;49.968;19.844;2023-03-01T23:07:26;53.35;;;19.50;;
20739;SDS011;10530;49.968;19.844;2023-03-01T23:12:29;53.83;;;20.03;;
20739;SDS011;10530;49.968;19.844;2023-03-01T23:17:32;42.35;;;19.42;;
20739;SDS011;10530;49.968;19.844;2023-03-01T23:22:36;42.60;;;17.02;;
20739;SDS011;10530;49.968;19.844;2023-03-01T23:27:39;47.25;;;19.10;;
20739;SDS011;10530;49.968;19.844;2023-03-01T23:32:42;37.40;;;18.73;;
20739;SDS011;10530;49.968;19.844;2023-03-01T23:37:45;52.73;;;20.30;;
20739;SDS011;10530;49.968;19.844;2023-03-01T23:42:47;44.00;;;18.10;;
20739;SDS011;10530;49.968;19.844;2023-03-01T23:47:50;50.38;;;19.45;;
20739;SDS011;10530;49.968;19.844;2023-03-01T23:52:53;53.38;;;21.75;;
20739;SDS011;10530;49.968;19.844;2023-03-01T23:57:55;57.17;;;21.60;;
